.
WxDataArchive / Data Records for 2015-12-28
2015-12-27 December 2015 2015-12-29

Data Records for Monday, 28 December 2015

Time	Temp	Chill	HIndex	Humid	Dewpt	 Wind 	HiWind	WindDir	Rain 	Barom
-----	----	-----	------	-----	-----	------	------	-------	-----	-----
00:00	34.3	34.3	34.3	76	27.5	3	12	22	0.00	30.331 
00:05	34.3	34.3	34.3	76	27.5	2	6	112	0.00	30.331 
00:10	34.1	34.1	34.1	76	27.3	2	7	112	0.00	30.331 
00:15	34.1	34.1	34.1	76	27.3	2	6	112	0.00	30.329 
00:20	34.1	34.1	34.1	76	27.3	3	7	90	0.00	30.329 
00:25	34.0	34.0	34.0	76	27.2	3	9	112	0.00	30.329 
00:30	34.0	30.4	34.0	76	27.2	4	14	112	0.00	30.308 
00:35	34.0	34.0	34.0	76	27.2	2	5	22	0.00	30.308 
00:40	34.0	34.0	34.0	76	27.2	3	11	112	0.00	30.308 
00:45	33.8	33.8	33.8	76	27.1	2	13	90	0.00	30.302 
00:50	33.8	33.8	33.8	76	27.1	3	12	90	0.00	30.302 
00:55	33.8	30.2	33.8	76	27.1	4	14	112	0.00	30.302 
01:00	33.8	33.8	33.8	77	27.4	2	6	22	0.00	30.305 
01:05	33.7	33.7	33.7	77	27.3	3	12	112	0.00	30.305 
01:10	33.7	30.0	33.7	77	27.3	4	11	112	0.00	30.305 
01:15	33.7	33.7	33.7	77	27.3	3	11	112	0.00	30.303 
01:20	33.5	33.5	33.5	77	27.1	3	9	112	0.00	30.303 
01:25	33.5	33.5	33.5	78	27.4	1	4	112	0.00	30.303 
01:30	33.5	33.5	33.5	78	27.4	3	9	112	0.00	30.314 
01:35	33.5	33.5	33.5	78	27.4	2	7	112	0.00	30.314 
01:40	33.4	33.4	33.4	78	27.3	3	11	22	0.00	30.314 
01:45	33.4	33.4	33.4	78	27.3	3	9	68	0.00	30.301 
01:50	33.4	33.4	33.4	78	27.3	3	10	112	0.00	30.301 
01:55	33.2	33.2	33.2	78	27.1	3	8	112	0.00	30.301 
02:00	33.2	29.5	33.2	78	27.1	4	11	112	0.00	30.297 
02:05	33.2	33.2	33.2	78	27.1	3	9	112	0.00	30.297 
02:10	33.2	33.2	33.2	78	27.1	3	11	68	0.00	30.297 
02:15	33.2	33.2	33.2	78	27.1	2	11	112	0.00	30.303 
02:20	33.2	33.2	33.2	78	27.1	3	10	112	0.00	30.303 
02:25	33.2	33.2	33.2	78	27.1	3	10	90	0.00	30.303 
02:30	33.2	33.2	33.2	79	27.4	2	9	22	0.00	30.301 
02:35	33.2	33.2	33.2	79	27.4	3	10	112	0.00	30.301 
02:40	33.2	28.5	33.2	79	27.4	5	15	112	0.00	30.301 
02:45	33.2	33.2	33.2	79	27.4	2	9	112	0.00	30.302 
02:50	33.2	33.2	33.2	79	27.4	3	12	112	0.00	30.302 
02:55	33.1	33.1	33.1	79	27.3	2	9	68	0.00	30.302 
03:00	33.1	33.1	33.1	79	27.3	2	10	90	0.00	30.305 
03:05	33.1	33.1	33.1	79	27.3	3	9	112	0.00	30.305 
03:10	33.1	33.1	33.1	79	27.3	3	12	112	0.00	30.305 
03:15	33.1	33.1	33.1	79	27.3	3	10	90	0.00	30.318 
03:20	33.1	33.1	33.1	79	27.3	3	12	90	0.00	30.318 
03:25	33.1	33.1	33.1	79	27.3	3	11	90	0.00	30.318 
03:30	33.1	33.1	33.1	79	27.3	2	8	90	0.00	30.319 
03:35	33.1	33.1	33.1	79	27.3	2	7	135	0.00	30.319 
03:40	32.9	32.9	32.9	79	27.1	2	10	112	0.00	30.319 
03:45	32.9	32.9	32.9	79	27.1	3	10	45	0.00	30.303 
03:50	32.9	32.9	32.9	79	27.1	2	11	112	0.00	30.303 
03:55	32.9	32.9	32.9	79	27.1	3	11	112	0.00	30.303 
04:00	32.8	32.8	32.8	79	27.0	3	12	45	0.00	30.287 
04:05	32.8	29.0	32.8	79	27.0	4	9	90	0.00	30.287 
04:10	32.8	32.8	32.8	79	27.0	3	13	112	0.00	30.287 
04:15	32.8	32.8	32.8	79	27.0	3	12	90	0.00	30.294 
04:20	32.8	32.8	32.8	79	27.0	3	11	90	0.00	30.294 
04:25	32.8	29.0	32.8	79	27.0	4	14	90	0.00	30.294 
04:30	32.8	29.0	32.8	79	27.0	4	12	90	0.00	30.289 
04:35	32.8	32.8	32.8	79	27.0	2	12	112	0.00	30.289 
04:40	32.8	29.0	32.8	79	27.0	4	10	112	0.00	30.289 
04:45	32.8	29.0	32.8	79	27.0	4	13	112	0.00	30.284 
04:50	32.8	28.0	32.8	79	27.0	5	18	112	0.00	30.284 
04:55	32.8	32.8	32.8	80	27.3	3	10	90	0.00	30.284 
05:00	32.7	28.9	32.7	80	27.2	4	16	112	0.00	30.284 
05:05	32.7	28.9	32.7	80	27.2	4	12	112	0.00	30.284 
05:10	32.7	28.9	32.7	80	27.2	4	11	90	0.00	30.284 
05:15	32.7	27.1	32.7	80	27.2	6	16	112	0.00	30.273 
05:20	32.5	27.7	32.5	80	27.0	5	12	112	0.00	30.273 
05:25	32.5	28.7	32.5	81	27.3	4	13	90	0.00	30.273 
05:30	32.4	27.5	32.4	81	27.2	5	17	112	0.00	30.269 
05:35	32.4	26.7	32.4	82	27.5	6	15	112	0.00	30.269 
05:40	32.4	28.5	32.4	82	27.5	4	12	112	0.00	30.269 
05:45	32.2	32.2	32.2	83	27.6	3	10	112	0.00	30.267 
05:50	32.1	32.1	32.1	83	27.5	3	11	112	0.00	30.267 
05:55	31.9	26.1	31.9	83	27.3	6	17	112	0.00	30.267 
06:00	31.9	26.1	31.9	84	27.6	6	14	112	0.00	30.266 
06:05	31.9	26.1	31.9	84	27.6	6	17	112	0.00	30.266 
06:10	31.8	26.8	31.8	84	27.5	5	12	112	0.00	30.266 
06:15	31.8	26.8	31.8	85	27.8	5	15	112	0.00	30.257 
06:20	31.6	26.6	31.6	85	27.6	5	13	112	0.00	30.257 
06:25	31.6	26.6	31.6	85	27.6	5	14	112	0.00	30.257 
06:30	31.6	25.8	31.6	86	27.9	6	14	112	0.00	30.256 
06:35	31.8	26.8	31.8	86	28.1	5	12	90	0.00	30.256 
06:40	31.8	26.8	31.8	86	28.1	5	15	112	0.00	30.256 
06:45	31.8	26.0	31.8	86	28.1	6	13	112	0.00	30.254 
06:50	31.8	26.8	31.8	87	28.4	5	12	112	0.00	30.254 
06:55	31.8	26.0	31.8	84	27.5	6	14	112	0.00	30.254 
07:00	31.8	26.0	31.8	86	28.1	6	16	112	0.00	30.257 
07:05	31.8	26.0	31.8	84	27.5	6	13	112	0.00	30.257 
07:10	31.8	26.8	31.8	85	27.8	5	13	90	0.00	30.257 
07:15	31.8	26.0	31.8	85	27.8	6	12	90	0.00	30.255 
07:20	31.8	26.8	31.8	85	27.8	5	17	112	0.00	30.255 
07:25	31.6	25.0	31.6	85	27.6	7	13	112	0.00	30.255 
07:30	31.6	26.6	31.6	85	27.6	5	12	112	0.00	30.259 
07:35	31.6	26.6	31.6	86	27.9	5	12	112	0.01	30.259 
07:40	31.6	25.8	31.6	86	27.9	6	16	90	0.00	30.259 
07:45	31.6	27.6	31.6	86	27.9	4	15	112	0.00	30.252 
07:50	31.5	27.5	31.5	86	27.8	4	13	112	0.00	30.252 
07:55	31.2	26.1	31.2	86	27.5	5	17	112	0.00	30.252 
08:00	31.0	25.0	31.0	86	27.3	6	17	112	0.00	30.256 
08:05	30.9	25.8	30.9	87	27.5	5	13	112	0.00	30.256 
08:10	30.9	26.8	30.9	87	27.5	4	11	112	0.00	30.256 
08:15	30.7	26.6	30.7	87	27.3	4	13	112	0.01	30.241 
08:20	30.7	25.5	30.7	87	27.3	5	15	112	0.00	30.241 
08:25	30.7	25.5	30.7	88	27.6	5	14	112	0.00	30.241 
08:30	30.7	24.7	30.7	88	27.6	6	12	112	0.01	30.236 
08:35	30.7	24.7	30.7	88	27.6	6	13	112	0.00	30.236 
08:40	30.7	24.7	30.7	88	27.6	6	15	112	0.01	30.236 
08:45	30.7	24.7	30.7	89	27.8	6	13	112	0.01	30.226 
08:50	30.7	26.6	30.7	89	27.8	4	8	112	0.01	30.226 
08:55	30.6	24.6	30.6	89	27.8	6	16	112	0.00	30.226 
09:00	30.6	30.6	30.6	89	27.8	1	14	112	0.00	30.210 
09:05	30.6	30.6	30.6	89	27.8	0	0	---	0.00	30.210 
09:10	30.7	30.7	30.7	89	27.8	0	0	---	0.00	30.210 
09:15	30.7	30.7	30.7	90	28.1	0	0	---	0.00	30.206 
09:20	30.7	30.7	30.7	90	28.1	0	0	---	0.00	30.206 
09:25	30.6	30.6	30.6	90	28.0	0	0	---	0.00	30.206 
09:30	30.6	30.6	30.6	90	28.0	0	0	---	0.01	30.202 
09:35	30.6	30.6	30.6	90	28.0	0	0	---	0.00	30.202 
09:40	30.7	30.7	30.7	90	28.1	0	0	---	0.01	30.202 
09:45	30.7	30.7	30.7	90	28.1	0	0	---	0.00	30.180 
09:50	30.7	30.7	30.7	91	28.4	0	0	---	0.01	30.180 
09:55	30.9	30.9	30.9	91	28.6	0	0	---	0.01	30.180 
10:00	30.9	30.9	30.9	91	28.6	0	0	---	0.00	30.162 
10:05	30.9	30.9	30.9	91	28.6	0	0	---	0.00	30.162 
10:10	31.0	31.0	31.0	91	28.7	0	0	---	0.00	30.162 
10:15	31.0	31.0	31.0	91	28.7	0	0	---	0.00	30.163 
10:20	31.0	31.0	31.0	91	28.7	0	0	---	0.00	30.163 
10:25	31.0	31.0	31.0	91	28.7	0	0	---	0.00	30.163 
10:30	31.2	31.2	31.2	91	28.9	0	0	---	0.00	30.177 
10:35	31.2	31.2	31.2	91	28.9	0	0	---	0.00	30.177 
10:40	31.3	31.3	31.3	91	29.0	0	0	---	0.01	30.177 
10:45	31.5	31.5	31.5	91	29.2	0	0	---	0.00	30.149 
10:50	31.6	31.6	31.6	91	29.3	0	0	---	0.01	30.149 
10:55	31.6	31.6	31.6	91	29.3	0	0	---	0.01	30.149 
11:00	31.8	31.8	31.8	91	29.5	0	0	---	0.01	30.149 
11:05	31.8	31.8	31.8	91	29.5	0	0	---	0.00	30.149 
11:10	31.8	31.8	31.8	91	29.5	0	0	---	0.00	30.149 
11:15	31.9	31.9	31.9	91	29.6	0	0	---	0.01	30.133 
11:20	31.9	31.9	31.9	91	29.6	0	0	---	0.00	30.133 
11:25	31.9	31.9	31.9	92	29.8	0	0	---	0.00	30.133 
11:30	31.9	31.9	31.9	92	29.8	3	10	135	0.01	30.121 
11:35	31.9	28.0	31.9	92	29.8	4	11	135	0.00	30.121 
11:40	32.1	32.1	32.1	92	30.0	3	9	135	0.00	30.121 
11:45	32.1	28.2	32.1	92	30.0	4	10	135	0.00	30.087 
11:50	32.2	32.2	32.2	92	30.1	3	8	135	0.00	30.087 
11:55	32.2	28.3	32.2	92	30.1	4	10	135	0.00	30.087 
12:00	32.4	27.5	32.4	91	30.1	5	12	135	0.00	30.068 
12:05	32.4	26.0	32.4	91	30.1	7	12	135	0.00	30.068 
12:10	32.4	26.7	32.4	91	30.1	6	11	135	0.00	30.068 
12:15	32.5	27.7	32.5	91	30.2	5	12	135	0.00	30.043 
12:20	32.5	27.7	32.5	91	30.2	5	9	135	0.00	30.043 
12:25	32.5	27.7	32.5	91	30.2	5	11	135	0.02	30.043 
12:30	32.5	28.7	32.5	92	30.4	4	10	135	0.00	30.058 
12:35	32.5	28.7	32.5	92	30.4	4	9	135	0.02	30.058 
12:40	32.5	27.7	32.5	92	30.4	5	10	135	0.01	30.058 
12:45	32.5	28.7	32.5	92	30.4	4	10	135	0.02	30.037 
12:50	32.5	28.7	32.5	92	30.4	4	11	135	0.02	30.037 
12:55	32.5	32.5	32.5	92	30.4	3	6	112	0.00	30.037 
13:00	32.5	32.5	32.5	92	30.4	3	5	112	0.01	30.040 
13:05	32.7	28.9	32.7	93	30.9	4	9	112	0.00	30.040 
13:10	32.7	28.9	32.7	93	30.9	4	10	112	0.00	30.040 
13:15	32.7	32.7	32.7	93	30.9	3	6	112	0.00	30.006 
13:20	32.7	32.7	32.7	93	30.9	3	10	112	0.00	30.006 
13:25	32.7	28.9	32.7	93	30.9	4	10	112	0.00	30.006 
13:30	32.7	32.7	32.7	93	30.9	3	10	135	0.00	29.992 
13:35	32.8	29.0	32.8	93	31.0	4	6	135	0.01	29.992 
13:40	32.8	32.8	32.8	93	31.0	3	7	135	0.00	29.992 
13:45	32.8	32.8	32.8	93	31.0	3	7	112	0.00	29.966 
13:50	32.8	29.0	32.8	93	31.0	4	9	112	0.00	29.966 
13:55	32.8	29.0	32.8	93	31.0	4	10	135	0.00	29.966 
14:00	32.8	29.0	32.8	93	31.0	4	11	112	0.00	29.940 
14:05	32.9	28.1	32.9	94	31.4	5	12	112	0.00	29.940 
14:10	32.9	27.3	32.9	93	31.1	6	12	112	0.01	29.940 
14:15	32.9	28.1	32.9	93	31.1	5	12	112	0.00	29.911 
14:20	32.9	29.1	32.9	93	31.1	4	10	112	0.00	29.911 
14:25	33.1	28.4	33.1	93	31.3	5	11	112	0.01	29.911 
14:30	32.9	28.1	32.9	93	31.1	5	12	112	0.00	29.910 
14:35	32.9	28.1	32.9	93	31.1	5	13	112	0.03	29.910 
14:40	32.9	28.1	32.9	93	31.1	5	13	112	0.06	29.910 
14:45	32.9	29.1	32.9	93	31.1	4	10	112	0.00	29.893 
14:50	32.9	27.3	32.9	93	31.1	6	12	112	0.01	29.893 
14:55	32.9	25.9	32.9	93	31.1	8	16	112	0.00	29.893 
15:00	33.1	27.5	33.1	93	31.3	6	14	90	0.00	29.868 
15:05	33.1	28.4	33.1	93	31.3	5	11	112	0.01	29.868 
15:10	33.1	33.1	33.1	93	31.3	3	9	112	0.00	29.868 
15:15	33.1	27.5	33.1	93	31.3	6	11	112	0.00	29.866 
15:20	33.2	27.7	33.2	93	31.4	6	12	112	0.00	29.866 
15:25	33.2	27.7	33.2	92	31.1	6	13	112	0.00	29.866 
15:30	33.2	27.7	33.2	92	31.1	6	14	112	0.00	29.857 
15:35	33.4	27.9	33.4	92	31.3	6	13	90	0.01	29.857 
15:40	33.4	26.6	33.4	92	31.3	8	16	112	0.01	29.857 
15:45	33.4	27.9	33.4	92	31.3	6	13	112	0.01	29.848 
15:50	33.4	27.9	33.4	92	31.3	6	13	112	0.00	29.848 
15:55	33.4	27.2	33.4	92	31.3	7	14	112	0.01	29.848 
16:00	33.4	27.9	33.4	92	31.3	6	15	112	0.00	29.830 
16:05	33.4	27.2	33.4	92	31.3	7	13	112	0.00	29.830 
16:10	33.4	27.2	33.4	92	31.3	7	14	112	0.01	29.830 
16:15	33.2	26.3	33.2	92	31.1	8	14	112	0.00	29.823 
16:20	33.4	27.2	33.4	92	31.3	7	12	112	0.00	29.823 
16:25	33.4	27.2	33.4	91	31.1	7	17	112	0.01	29.823 
16:30	33.2	26.9	33.2	92	31.1	7	13	112	0.01	29.833 
16:35	33.2	26.9	33.2	92	31.1	7	14	112	0.00	29.833 
16:40	33.2	26.3	33.2	92	31.1	8	19	112	0.01	29.833 
16:45	33.2	26.3	33.2	92	31.1	8	16	112	0.00	29.812 
16:50	33.4	26.6	33.4	92	31.3	8	20	112	0.01	29.812 
16:55	33.4	26.0	33.4	92	31.3	9	18	112	0.01	29.812 
17:00	33.4	26.6	33.4	92	31.3	8	15	112	0.01	29.797 
17:05	33.2	26.3	33.2	92	31.1	8	15	112	0.01	29.797 
17:10	33.2	26.3	33.2	92	31.1	8	20	112	0.02	29.797 
17:15	33.2	25.7	33.2	92	31.1	9	16	112	0.01	29.779 
17:20	33.2	26.3	33.2	92	31.1	8	15	112	0.02	29.779 
17:25	33.2	26.3	33.2	92	31.1	8	14	112	0.01	29.779 
17:30	33.2	25.7	33.2	92	31.1	9	19	112	0.00	29.739 
17:35	33.2	28.5	33.2	93	31.4	5	11	112	0.00	29.739 
17:40	33.2	25.7	33.2	93	31.4	9	20	112	0.00	29.739 
17:45	33.2	26.9	33.2	93	31.4	7	14	112	0.04	29.737 
17:50	33.2	26.3	33.2	93	31.4	8	16	90	0.02	29.737 
17:55	33.2	26.3	33.2	93	31.4	8	16	112	0.03	29.737 
18:00	33.2	26.9	33.2	93	31.4	7	13	112	0.02	29.720 
18:05	33.2	27.7	33.2	93	31.4	6	14	90	0.02	29.720 
18:10	33.2	25.2	33.2	93	31.4	10	20	112	0.02	29.720 
18:15	33.4	26.0	33.4	93	31.6	9	22	112	0.01	29.679 
18:20	33.4	26.0	33.4	93	31.6	9	18	112	0.00	29.679 
18:25	33.4	26.6	33.4	93	31.6	8	20	90	0.00	29.679 
18:30	33.4	24.5	33.4	93	31.6	12	21	112	0.00	29.661 
18:35	33.5	25.6	33.5	93	31.7	10	17	90	0.01	29.661 
18:40	33.5	25.1	33.5	93	31.7	11	22	112	0.01	29.661 
18:45	33.5	26.7	33.5	93	31.7	8	15	112	0.03	29.637 
18:50	33.5	26.7	33.5	93	31.7	8	19	112	0.00	29.637 
18:55	33.7	26.3	33.7	93	31.9	9	20	112	0.01	29.637 
19:00	33.7	26.3	33.7	93	31.9	9	15	112	0.00	29.638 
19:05	33.7	25.8	33.7	93	31.9	10	20	90	0.00	29.638 
19:10	33.7	25.8	33.7	93	31.9	10	20	112	0.01	29.638 
19:15	33.7	28.3	33.7	93	31.9	6	12	112	0.01	29.616 
19:20	33.7	26.3	33.7	93	31.9	9	17	112	0.01	29.616 
19:25	33.7	27.5	33.7	93	31.9	7	18	112	0.02	29.616 
19:30	33.8	27.0	33.8	93	32.0	8	17	112	0.00	29.613 
19:35	33.8	26.5	33.8	93	32.0	9	18	112	0.01	29.613 
19:40	34.0	28.6	34.0	94	32.5	6	16	112	0.00	29.613 
19:45	34.1	27.4	34.1	94	32.6	8	17	112	0.00	29.590 
19:50	34.1	28.7	34.1	94	32.6	6	19	112	0.00	29.590 
19:55	34.3	27.6	34.3	94	32.8	8	16	112	0.01	29.590 
20:00	34.3	29.8	34.3	94	32.8	5	11	112	0.00	29.584 
20:05	34.6	29.3	34.6	94	33.1	6	13	112	0.01	29.584 
20:10	34.7	28.8	34.7	94	33.2	7	15	112	0.01	29.584 
20:15	34.9	29.0	34.9	94	33.4	7	17	112	0.02	29.549 
20:20	35.0	29.8	35.0	94	33.5	6	11	90	0.01	29.549 
20:25	35.3	29.5	35.3	95	34.0	7	16	112	0.01	29.549 
20:30	35.3	30.2	35.3	95	34.0	6	13	112	0.01	29.546 
20:35	35.5	29.7	35.5	95	34.2	7	14	112	0.01	29.546 
20:40	35.5	31.2	35.5	95	34.2	5	14	112	0.01	29.546 
20:45	35.8	35.8	35.8	95	34.5	2	6	248	0.03	29.662 
20:50	35.8	35.8	35.8	95	34.5	3	6	112	0.05	29.662 
20:55	35.8	35.8	35.8	95	34.5	1	6	112	0.02	29.662 
21:00	35.9	35.9	35.9	95	34.6	1	3	112	0.03	29.599 
21:05	35.9	35.9	35.9	95	34.6	1	4	112	0.02	29.599 
21:10	36.0	36.0	36.0	95	34.7	3	5	90	0.00	29.599 
21:15	36.2	36.2	36.2	95	34.9	2	4	90	0.00	29.597 
21:20	36.2	36.2	36.2	95	34.9	1	4	90	0.01	29.597 
21:25	36.3	36.3	36.3	95	35.0	2	6	90	0.00	29.597 
21:30	36.5	36.5	36.5	95	35.2	2	6	90	0.00	29.582 
21:35	36.5	36.5	36.5	95	35.2	3	7	90	0.00	29.582 
21:40	36.6	36.6	36.6	95	35.3	3	6	112	0.00	29.582 
21:45	36.6	36.6	36.6	96	35.6	2	7	90	0.01	29.575 
21:50	36.6	36.6	36.6	95	35.3	3	5	112	0.00	29.575 
21:55	36.5	36.5	36.5	96	35.5	2	5	90	0.00	29.575 
22:00	36.6	36.6	36.6	96	35.6	1	3	68	0.00	29.575 
22:05	36.6	36.6	36.6	96	35.6	1	5	112	0.00	29.575 
22:10	36.8	36.8	36.8	96	35.8	1	3	112	0.00	29.575 
22:15	36.8	36.8	36.8	96	35.8	1	4	112	0.00	29.567 
22:20	36.9	36.9	36.9	96	35.9	2	6	112	0.00	29.567 
22:25	37.0	37.0	37.0	96	36.0	3	7	112	0.00	29.567 
22:30	37.0	37.0	37.0	96	36.0	1	3	112	0.00	29.573 
22:35	37.0	37.0	37.0	96	36.0	0	2	112	0.00	29.573 
22:40	37.0	37.0	37.0	96	36.0	1	5	90	0.00	29.573 
22:45	37.0	37.0	37.0	96	36.0	1	5	90	0.00	29.564 
22:50	36.9	36.9	36.9	96	35.9	0	4	112	0.00	29.564 
22:55	36.9	36.9	36.9	96	35.9	0	3	112	0.00	29.564 
23:00	36.9	36.9	36.9	96	35.9	0	4	112	0.00	29.573 
23:05	36.9	36.9	36.9	96	35.9	1	3	112	0.00	29.573 
23:10	36.9	36.9	36.9	96	35.9	0	1	112	0.00	29.573 
23:15	36.9	36.9	36.9	96	35.9	0	1	112	0.00	29.581 
23:20	37.0	37.0	37.0	96	36.0	0	2	112	0.00	29.581 
23:25	37.0	37.0	37.0	96	36.0	0	2	112	0.00	29.581 
23:30	37.0	37.0	37.0	96	36.0	0	0	---	0.00	29.578 
23:35	36.9	36.9	36.9	96	35.9	0	0	---	0.00	29.578 
23:40	36.8	36.8	36.8	96	35.8	0	0	---	0.00	29.578 
23:45	36.6	36.6	36.6	96	35.6	0	0	---	0.00	29.577 
23:50	36.3	36.3	36.3	96	35.3	0	0	---	0.00	29.577 
23:55	36.2	36.2	36.2	96	35.2	0	0	---	0.00	29.577 

CoCoRaHS
IN-AL-39
A2 Web Hosting
Creative Commons License
GoDaddy
search engine by freefind advanced

loaded 2018-11-15 04:06:56 • last modified 2010-11-18 10:43:29
Privacy PolicyDisclaimer
• wx.awcolley.com is powered by PmWiki v.2002016 •
• all content (unless otherwise noted) © 2018 A W Colley